sensor_id;sensor_type;location;lat;lon;timestamp;temperature;humidity
22838;DHT22;11585;51.450;-0.240;2023-04-25T00:00:30;9.10;99.90
22838;DHT22;11585;51.450;-0.240;2023-04-25T00:02:56;9.10;99.90
22838;DHT22;11585;51.450;-0.240;2023-04-25T00:05:22;9.10;99.90
22838;DHT22;11585;51.450;-0.240;2023-04-25T00:11:10;9.10;99.90
22838;DHT22;11585;51.450;-0.240;2023-04-25T00:13:36;9.10;99.90
22838;DHT22;11585;51.450;-0.240;2023-04-25T00:16:01;9.00;99.90
22838;DHT22;11585;51.450;-0.240;2023-04-25T00:24:41;8.90;99.90
22838;DHT22;11585;51.450;-0.240;2023-04-25T00:27:06;9.10;99.90
22838;DHT22;11585;51.450;-0.240;2023-04-25T00:32:37;9.00;99.90
22838;DHT22;11585;51.450;-0.240;2023-04-25T00:35:03;8.80;99.90
22838;DHT22;11585;51.450;-0.240;2023-04-25T00:37:29;9.00;99.90
22838;DHT22;11585;51.450;-0.240;2023-04-25T00:39:55;9.10;99.90
22838;DHT22;11585;51.450;-0.240;2023-04-25T00:42:21;9.00;99.90
22838;DHT22;11585;51.450;-0.240;2023-04-25T00:44:47;8.90;99.90
22838;DHT22;11585;51.450;-0.240;2023-04-25T00:47:13;8.90;99.90
22838;DHT22;11585;51.450;-0.240;2023-04-25T00:52:47;8.90;99.90
22838;DHT22;11585;51.450;-0.240;2023-04-25T00:55:13;9.00;99.90
22838;DHT22;11585;51.450;-0.240;2023-04-25T01:01:02;8.90;99.90
22838;DHT22;11585;51.450;-0.240;2023-04-25T01:03:28;8.80;99.90
22838;DHT22;11585;51.450;-0.240;2023-04-25T01:06:12;8.80;99.90
22838;DHT22;11585;51.450;-0.240;2023-04-25T01:12:00;8.80;99.90
22838;DHT22;11585;51.450;-0.240;2023-04-25T01:14:26;8.80;99.90
22838;DHT22;11585;51.450;-0.240;2023-04-25T01:16:52;8.80;99.90
22838;DHT22;11585;51.450;-0.240;2023-04-25T01:19:37;8.80;99.90
22838;DHT22;11585;51.450;-0.240;2023-04-25T01:22:04;8.80;99.90
22838;DHT22;11585;51.450;-0.240;2023-04-25T01:24:34;8.50;99.90
22838;DHT22;11585;51.450;-0.240;2023-04-25T01:27:09;9.00;99.90
22838;DHT22;11585;51.450;-0.240;2023-04-25T01:29:44;8.70;99.90
22838;DHT22;11585;51.450;-0.240;2023-04-25T01:32:10;8.70;99.90
22838;DHT22;11585;51.450;-0.240;2023-04-25T01:34:36;8.70;99.90
22838;DHT22;11585;51.450;-0.240;2023-04-25T01:37:01;8.60;99.90
22838;DHT22;11585;51.450;-0.240;2023-04-25T01:39:46;8.90;99.90
22838;DHT22;11585;51.450;-0.240;2023-04-25T01:42:21;8.60;99.90
22838;DHT22;11585;51.450;-0.240;2023-04-25T01:44:46;8.50;99.90
22838;DHT22;11585;51.450;-0.240;2023-04-25T01:47:15;8.60;99.90
22838;DHT22;11585;51.450;-0.240;2023-04-25T01:53:07;8.60;99.90
22838;DHT22;11585;51.450;-0.240;2023-04-25T01:55:34;8.60;99.90
22838;DHT22;11585;51.450;-0.240;2023-04-25T02:01:24;8.60;99.90
22838;DHT22;11585;51.450;-0.240;2023-04-25T02:03:50;8.60;99.90
22838;DHT22;11585;51.450;-0.240;2023-04-25T02:06:16;8.60;99.90
22838;DHT22;11585;51.450;-0.240;2023-04-25T02:12:05;8.50;99.90
22838;DHT22;11585;51.450;-0.240;2023-04-25T02:14:31;8.50;99.90
22838;DHT22;11585;51.450;-0.240;2023-04-25T02:16:57;8.40;99.90
22838;DHT22;11585;51.450;-0.240;2023-04-25T02:22:46;8.40;99.90
22838;DHT22;11585;51.450;-0.240;2023-04-25T02:25:11;8.40;99.90
22838;DHT22;11585;51.450;-0.240;2023-04-25T02:30:59;8.40;99.90
22838;DHT22;11585;51.450;-0.240;2023-04-25T02:33:25;8.40;99.90
22838;DHT22;11585;51.450;-0.240;2023-04-25T02:35:50;8.40;99.90
22838;DHT22;11585;51.450;-0.240;2023-04-25T02:41:38;8.30;99.90
22838;DHT22;11585;51.450;-0.240;2023-04-25T02:44:06;8.40;99.90
22838;DHT22;11585;51.450;-0.240;2023-04-25T02:46:34;8.30;99.90
22838;DHT22;11585;51.450;-0.240;2023-04-25T02:51:48;8.30;99.90
22838;DHT22;11585;51.450;-0.240;2023-04-25T02:54:13;8.30;99.90
22838;DHT22;11585;51.450;-0.240;2023-04-25T02:56:39;8.20;99.90
22838;DHT22;11585;51.450;-0.240;2023-04-25T03:02:27;8.20;99.90
22838;DHT22;11585;51.450;-0.240;2023-04-25T03:08:15;8.20;99.90
22838;DHT22;11585;51.450;-0.240;2023-04-25T03:10:40;8.20;99.90
22838;DHT22;11585;51.450;-0.240;2023-04-25T03:13:06;8.20;99.90
22838;DHT22;11585;51.450;-0.240;2023-04-25T03:15:32;8.10;99.90
22838;DHT22;11585;51.450;-0.240;2023-04-25T03:21:19;8.10;99.90
22838;DHT22;11585;51.450;-0.240;2023-04-25T03:23:45;8.10;99.90
22838;DHT22;11585;51.450;-0.240;2023-04-25T03:26:11;8.20;99.90
22838;DHT22;11585;51.450;-0.240;2023-04-25T03:31:58;8.00;99.90
22838;DHT22;11585;51.450;-0.240;2023-04-25T03:34:24;8.00;99.90
22838;DHT22;11585;51.450;-0.240;2023-04-25T03:36:49;8.00;99.90
22838;DHT22;11585;51.450;-0.240;2023-04-25T03:42:37;8.00;99.90
22838;DHT22;11585;51.450;-0.240;2023-04-25T03:45:02;8.30;99.90
22838;DHT22;11585;51.450;-0.240;2023-04-25T03:50:50;7.90;99.90
22838;DHT22;11585;51.450;-0.240;2023-04-25T03:53:16;7.90;99.90
22838;DHT22;11585;51.450;-0.240;2023-04-25T03:55:41;8.00;99.90
22838;DHT22;11585;51.450;-0.240;2023-04-25T04:01:29;7.90;99.90
22838;DHT22;11585;51.450;-0.240;2023-04-25T04:03:55;7.90;99.90
22838;DHT22;11585;51.450;-0.240;2023-04-25T04:06:21;7.80;99.90
22838;DHT22;11585;51.450;-0.240;2023-04-25T04:12:08;7.80;99.90
22838;DHT22;11585;51.450;-0.240;2023-04-25T04:14:34;7.80;99.90
22838;DHT22;11585;51.450;-0.240;2023-04-25T04:17:00;7.80;99.90
22838;DHT22;11585;51.450;-0.240;2023-04-25T04:22:49;7.80;99.90
22838;DHT22;11585;51.450;-0.240;2023-04-25T04:28:37;7.70;99.90
22838;DHT22;11585;51.450;-0.240;2023-04-25T04:31:03;7.70;99.90
22838;DHT22;11585;51.450;-0.240;2023-04-25T04:33:29;7.80;99.90
22838;DHT22;11585;51.450;-0.240;2023-04-25T04:35:56;7.70;99.90
22838;DHT22;11585;51.450;-0.240;2023-04-25T04:41:44;7.70;99.90
22838;DHT22;11585;51.450;-0.240;2023-04-25T04:44:09;7.60;99.90
22838;DHT22;11585;51.450;-0.240;2023-04-25T04:46:36;7.60;99.90
22838;DHT22;11585;51.450;-0.240;2023-04-25T04:52:29;7.60;99.90
22838;DHT22;11585;51.450;-0.240;2023-04-25T04:54:55;7.70;99.90
22838;DHT22;11585;51.450;-0.240;2023-04-25T05:00:42;7.60;99.90
22838;DHT22;11585;51.450;-0.240;2023-04-25T05:03:08;7.50;99.90
22838;DHT22;11585;51.450;-0.240;2023-04-25T05:05:34;8.00;99.90
22838;DHT22;11585;51.450;-0.240;2023-04-25T05:11:22;7.50;99.90
22838;DHT22;11585;51.450;-0.240;2023-04-25T05:17:10;7.50;99.90
22838;DHT22;11585;51.450;-0.240;2023-04-25T05:22:58;7.50;99.90
22838;DHT22;11585;51.450;-0.240;2023-04-25T05:25:23;7.40;99.90
22838;DHT22;11585;51.450;-0.240;2023-04-25T05:31:11;7.50;99.90
22838;DHT22;11585;51.450;-0.240;2023-04-25T05:36:59;7.40;99.90
22838;DHT22;11585;51.450;-0.240;2023-04-25T05:42:47;7.40;99.90
22838;DHT22;11585;51.450;-0.240;2023-04-25T05:45:13;7.60;99.90
22838;DHT22;11585;51.450;-0.240;2023-04-25T05:51:00;7.40;99.90
22838;DHT22;11585;51.450;-0.240;2023-04-25T05:53:26;7.40;99.90
22838;DHT22;11585;51.450;-0.240;2023-04-25T05:55:52;7.40;99.90
22838;DHT22;11585;51.450;-0.240;2023-04-25T06:01:42;7.30;99.90
22838;DHT22;11585;51.450;-0.240;2023-04-25T06:07:32;7.30;99.90
22838;DHT22;11585;51.450;-0.240;2023-04-25T06:09:58;7.30;99.90
22838;DHT22;11585;51.450;-0.240;2023-04-25T06:12:24;7.30;99.90
22838;DHT22;11585;51.450;-0.240;2023-04-25T06:14:58;7.20;99.90
22838;DHT22;11585;51.450;-0.240;2023-04-25T06:20:45;7.30;99.90
22838;DHT22;11585;51.450;-0.240;2023-04-25T06:23:11;7.30;99.90
22838;DHT22;11585;51.450;-0.240;2023-04-25T06:25:37;7.30;99.90
22838;DHT22;11585;51.450;-0.240;2023-04-25T06:31:34;7.00;99.90
22838;DHT22;11585;51.450;-0.240;2023-04-25T06:37:25;7.30;99.90
22838;DHT22;11585;51.450;-0.240;2023-04-25T06:39:51;7.30;99.90
22838;DHT22;11585;51.450;-0.240;2023-04-25T06:42:17;7.30;99.90
22838;DHT22;11585;51.450;-0.240;2023-04-25T06:44:42;7.30;99.90
22838;DHT22;11585;51.450;-0.240;2023-04-25T06:47:08;7.30;99.90
22838;DHT22;11585;51.450;-0.240;2023-04-25T06:52:55;7.30;99.90
22838;DHT22;11585;51.450;-0.240;2023-04-25T06:55:21;7.30;99.90
22838;DHT22;11585;51.450;-0.240;2023-04-25T07:01:12;7.40;99.90
22838;DHT22;11585;51.450;-0.240;2023-04-25T07:03:38;7.50;99.90
22838;DHT22;11585;51.450;-0.240;2023-04-25T07:06:03;7.60;99.90
22838;DHT22;11585;51.450;-0.240;2023-04-25T07:11:51;7.40;99.90
22838;DHT22;11585;51.450;-0.240;2023-04-25T07:14:17;7.40;99.90
22838;DHT22;11585;51.450;-0.240;2023-04-25T07:17:25;7.30;99.90
22838;DHT22;11585;51.450;-0.240;2023-04-25T07:27:47;7.50;99.90
22838;DHT22;11585;51.450;-0.240;2023-04-25T07:40:34;7.60;99.90
22838;DHT22;11585;51.450;-0.240;2023-04-25T07:43:12;7.60;99.90
22838;DHT22;11585;51.450;-0.240;2023-04-25T07:45:45;7.70;99.90
22838;DHT22;11585;51.450;-0.240;2023-04-25T07:51:35;7.70;99.90
22838;DHT22;11585;51.450;-0.240;2023-04-25T07:54:00;7.80;99.90
22838;DHT22;11585;51.450;-0.240;2023-04-25T07:56:26;7.80;99.90
22838;DHT22;11585;51.450;-0.240;2023-04-25T08:02:00;7.90;99.90
22838;DHT22;11585;51.450;-0.240;2023-04-25T08:04:26;8.00;99.90
22838;DHT22;11585;51.450;-0.240;2023-04-25T08:06:52;8.00;99.90
22838;DHT22;11585;51.450;-0.240;2023-04-25T08:09:21;8.00;99.90
22838;DHT22;11585;51.450;-0.240;2023-04-25T08:11:47;8.20;99.90
22838;DHT22;11585;51.450;-0.240;2023-04-25T08:14:13;8.00;99.90
22838;DHT22;11585;51.450;-0.240;2023-04-25T08:16:39;8.20;99.90
22838;DHT22;11585;51.450;-0.240;2023-04-25T08:19:10;8.10;99.90
22838;DHT22;11585;51.450;-0.240;2023-04-25T08:21:36;8.20;99.90
22838;DHT22;11585;51.450;-0.240;2023-04-25T08:24:02;8.50;99.90
22838;DHT22;11585;51.450;-0.240;2023-04-25T08:26:28;8.20;99.90
22838;DHT22;11585;51.450;-0.240;2023-04-25T08:29:13;8.30;99.90
22838;DHT22;11585;51.450;-0.240;2023-04-25T08:31:39;8.30;99.90
22838;DHT22;11585;51.450;-0.240;2023-04-25T08:34:04;8.30;99.90
22838;DHT22;11585;51.450;-0.240;2023-04-25T08:36:30;8.40;99.90
22838;DHT22;11585;51.450;-0.240;2023-04-25T08:38:58;8.90;99.90
22838;DHT22;11585;51.450;-0.240;2023-04-25T08:41:24;8.40;99.90
22838;DHT22;11585;51.450;-0.240;2023-04-25T08:43:51;8.50;99.90
22838;DHT22;11585;51.450;-0.240;2023-04-25T08:46:20;9.20;99.90
22838;DHT22;11585;51.450;-0.240;2023-04-25T08:49:06;8.50;99.90
22838;DHT22;11585;51.450;-0.240;2023-04-25T08:51:32;8.60;99.90
22838;DHT22;11585;51.450;-0.240;2023-04-25T08:54:09;8.80;99.90
22838;DHT22;11585;51.450;-0.240;2023-04-25T08:56:36;8.80;99.90
22838;DHT22;11585;51.450;-0.240;2023-04-25T08:59:24;8.60;99.90
22838;DHT22;11585;51.450;-0.240;2023-04-25T09:01:50;8.70;99.90
22838;DHT22;11585;51.450;-0.240;2023-04-25T09:04:25;8.70;99.90
22838;DHT22;11585;51.450;-0.240;2023-04-25T09:06:51;8.70;99.90
22838;DHT22;11585;51.450;-0.240;2023-04-25T09:09:17;9.00;99.90
22838;DHT22;11585;51.450;-0.240;2023-04-25T09:11:43;9.00;99.90
22838;DHT22;11585;51.450;-0.240;2023-04-25T09:14:20;8.80;99.90
22838;DHT22;11585;51.450;-0.240;2023-04-25T09:17:02;8.80;99.90
22838;DHT22;11585;51.450;-0.240;2023-04-25T09:19:33;8.90;99.90
22838;DHT22;11585;51.450;-0.240;2023-04-25T09:22:02;8.90;99.90
22838;DHT22;11585;51.450;-0.240;2023-04-25T09:24:35;8.90;99.90
22838;DHT22;11585;51.450;-0.240;2023-04-25T09:27:05;8.90;99.90
22838;DHT22;11585;51.450;-0.240;2023-04-25T09:32:21;9.00;99.90
22838;DHT22;11585;51.450;-0.240;2023-04-25T09:34:57;9.00;99.90
22838;DHT22;11585;51.450;-0.240;2023-04-25T09:37:26;9.00;99.90
22838;DHT22;11585;51.450;-0.240;2023-04-25T09:39:57;9.40;99.90
22838;DHT22;11585;51.450;-0.240;2023-04-25T09:42:25;9.10;99.90
22838;DHT22;11585;51.450;-0.240;2023-04-25T09:45:03;9.20;99.90
22838;DHT22;11585;51.450;-0.240;2023-04-25T09:47:31;9.20;99.90
22838;DHT22;11585;51.450;-0.240;2023-04-25T09:49:57;9.20;99.90
22838;DHT22;11585;51.450;-0.240;2023-04-25T09:52:24;9.20;99.90
22838;DHT22;11585;51.450;-0.240;2023-04-25T09:54:51;9.80;99.90
22838;DHT22;11585;51.450;-0.240;2023-04-25T09:57:23;9.30;99.90
22838;DHT22;11585;51.450;-0.240;2023-04-25T09:59:54;9.30;99.90
22838;DHT22;11585;51.450;-0.240;2023-04-25T10:02:21;9.80;99.90
22838;DHT22;11585;51.450;-0.240;2023-04-25T10:04:50;9.30;99.90
22838;DHT22;11585;51.450;-0.240;2023-04-25T10:07:18;9.30;99.90
22838;DHT22;11585;51.450;-0.240;2023-04-25T10:09:47;9.60;99.90
22838;DHT22;11585;51.450;-0.240;2023-04-25T10:12:13;9.40;99.90
22838;DHT22;11585;51.450;-0.240;2023-04-25T10:14:41;9.40;99.90
22838;DHT22;11585;51.450;-0.240;2023-04-25T10:17:07;9.40;99.90
22838;DHT22;11585;51.450;-0.240;2023-04-25T10:19:37;9.40;99.90
22838;DHT22;11585;51.450;-0.240;2023-04-25T10:22:37;9.40;99.90
22838;DHT22;11585;51.450;-0.240;2023-04-25T10:25:04;9.40;99.90
22838;DHT22;11585;51.450;-0.240;2023-04-25T10:33:36;9.40;99.90
22838;DHT22;11585;51.450;-0.240;2023-04-25T10:36:13;9.50;99.90
22838;DHT22;11585;51.450;-0.240;2023-04-25T10:38:39;9.50;99.90
22838;DHT22;11585;51.450;-0.240;2023-04-25T10:41:06;9.50;99.90
22838;DHT22;11585;51.450;-0.240;2023-04-25T10:43:35;9.60;99.90
22838;DHT22;11585;51.450;-0.240;2023-04-25T10:46:30;9.60;99.90
22838;DHT22;11585;51.450;-0.240;2023-04-25T10:52:26;9.60;99.90
22838;DHT22;11585;51.450;-0.240;2023-04-25T10:54:53;9.70;99.90
22838;DHT22;11585;51.450;-0.240;2023-04-25T10:57:45;9.80;99.90
22838;DHT22;11585;51.450;-0.240;2023-04-25T11:00:15;9.70;99.90
22838;DHT22;11585;51.450;-0.240;2023-04-25T11:02:51;9.70;99.90
22838;DHT22;11585;51.450;-0.240;2023-04-25T11:08:10;9.80;99.90
22838;DHT22;11585;51.450;-0.240;2023-04-25T11:10:36;9.80;99.90
22838;DHT22;11585;51.450;-0.240;2023-04-25T11:13:20;9.90;99.90
22838;DHT22;11585;51.450;-0.240;2023-04-25T11:15:51;10.20;99.90
22838;DHT22;11585;51.450;-0.240;2023-04-25T11:18:37;9.80;99.90
22838;DHT22;11585;51.450;-0.240;2023-04-25T11:21:04;9.80;99.90
22838;DHT22;11585;51.450;-0.240;2023-04-25T11:23:30;9.80;99.90
22838;DHT22;11585;51.450;-0.240;2023-04-25T11:25:59;9.80;99.90
22838;DHT22;11585;51.450;-0.240;2023-04-25T11:28:28;9.90;99.90
22838;DHT22;11585;51.450;-0.240;2023-04-25T11:30:54;9.90;99.90
22838;DHT22;11585;51.450;-0.240;2023-04-25T11:33:24;9.90;99.90
22838;DHT22;11585;51.450;-0.240;2023-04-25T11:35:52;9.90;99.90
22838;DHT22;11585;51.450;-0.240;2023-04-25T11:38:39;9.90;99.90
22838;DHT22;11585;51.450;-0.240;2023-04-25T11:41:05;10.00;99.90
22838;DHT22;11585;51.450;-0.240;2023-04-25T11:43:31;10.00;99.90
22838;DHT22;11585;51.450;-0.240;2023-04-25T11:45:57;10.00;99.90
22838;DHT22;11585;51.450;-0.240;2023-04-25T11:48:23;10.00;99.90
22838;DHT22;11585;51.450;-0.240;2023-04-25T11:50:48;10.10;99.90
22838;DHT22;11585;51.450;-0.240;2023-04-25T11:53:14;10.00;99.90
22838;DHT22;11585;51.450;-0.240;2023-04-25T11:55:42;10.20;99.90
22838;DHT22;11585;51.450;-0.240;2023-04-25T11:58:28;10.10;99.90
22838;DHT22;11585;51.450;-0.240;2023-04-25T12:00:56;10.10;99.90
22838;DHT22;11585;51.450;-0.240;2023-04-25T12:03:24;10.10;99.90
22838;DHT22;11585;51.450;-0.240;2023-04-25T12:06:02;10.00;99.90
22838;DHT22;11585;51.450;-0.240;2023-04-25T12:08:28;10.00;99.90
22838;DHT22;11585;51.450;-0.240;2023-04-25T12:10:58;10.50;99.90
22838;DHT22;11585;51.450;-0.240;2023-04-25T12:13:44;10.10;99.90
22838;DHT22;11585;51.450;-0.240;2023-04-25T12:16:12;10.20;99.90
22838;DHT22;11585;51.450;-0.240;2023-04-25T12:22:03;10.20;99.90
22838;DHT22;11585;51.450;-0.240;2023-04-25T12:24:45;10.20;99.90
22838;DHT22;11585;51.450;-0.240;2023-04-25T12:27:10;10.30;99.90
22838;DHT22;11585;51.450;-0.240;2023-04-25T12:29:55;10.30;99.90
22838;DHT22;11585;51.450;-0.240;2023-04-25T12:32:21;10.30;99.90
22838;DHT22;11585;51.450;-0.240;2023-04-25T12:34:47;10.30;99.90
22838;DHT22;11585;51.450;-0.240;2023-04-25T12:37:16;10.40;99.90
22838;DHT22;11585;51.450;-0.240;2023-04-25T12:39:43;10.40;99.90
22838;DHT22;11585;51.450;-0.240;2023-04-25T12:42:08;10.40;99.90
22838;DHT22;11585;51.450;-0.240;2023-04-25T12:44:38;10.40;99.90
22838;DHT22;11585;51.450;-0.240;2023-04-25T12:47:03;10.40;99.90
22838;DHT22;11585;51.450;-0.240;2023-04-25T12:49:29;10.50;99.90
22838;DHT22;11585;51.450;-0.240;2023-04-25T12:51:55;10.50;99.90
22838;DHT22;11585;51.450;-0.240;2023-04-25T12:54:21;10.50;99.90
22838;DHT22;11585;51.450;-0.240;2023-04-25T12:56:46;10.60;99.90
22838;DHT22;11585;51.450;-0.240;2023-04-25T12:59:16;10.60;99.90
22838;DHT22;11585;51.450;-0.240;2023-04-25T13:01:42;10.60;99.90
22838;DHT22;11585;51.450;-0.240;2023-04-25T13:04:16;10.60;99.90
22838;DHT22;11585;51.450;-0.240;2023-04-25T13:06:52;10.60;99.90
22838;DHT22;11585;51.450;-0.240;2023-04-25T13:12:39;10.70;99.90
22838;DHT22;11585;51.450;-0.240;2023-04-25T13:15:09;10.60;99.90
22838;DHT22;11585;51.450;-0.240;2023-04-25T13:18:00;10.70;99.90
22838;DHT22;11585;51.450;-0.240;2023-04-25T13:20:26;10.70;99.90
22838;DHT22;11585;51.450;-0.240;2023-04-25T13:22:52;10.70;99.90
22838;DHT22;11585;51.450;-0.240;2023-04-25T13:25:18;10.80;99.90
22838;DHT22;11585;51.450;-0.240;2023-04-25T13:31:06;10.80;99.90
22838;DHT22;11585;51.450;-0.240;2023-04-25T13:33:32;10.80;99.90
22838;DHT22;11585;51.450;-0.240;2023-04-25T13:35:57;10.80;99.90
22838;DHT22;11585;51.450;-0.240;2023-04-25T13:38:24;10.90;99.90
22838;DHT22;11585;51.450;-0.240;2023-04-25T13:40:51;10.90;99.90
22838;DHT22;11585;51.450;-0.240;2023-04-25T13:43:21;10.90;99.90
22838;DHT22;11585;51.450;-0.240;2023-04-25T13:45:53;11.00;99.90
22838;DHT22;11585;51.450;-0.240;2023-04-25T13:48:20;11.00;99.90
22838;DHT22;11585;51.450;-0.240;2023-04-25T13:50:48;10.80;99.90
22838;DHT22;11585;51.450;-0.240;2023-04-25T13:53:16;11.00;99.90
22838;DHT22;11585;51.450;-0.240;2023-04-25T13:55:44;11.00;99.90
22838;DHT22;11585;51.450;-0.240;2023-04-25T13:58:10;11.10;99.90
22838;DHT22;11585;51.450;-0.240;2023-04-25T14:00:37;11.10;99.90
22838;DHT22;11585;51.450;-0.240;2023-04-25T14:03:04;11.10;99.90
22838;DHT22;11585;51.450;-0.240;2023-04-25T14:05:33;11.10;99.90
22838;DHT22;11585;51.450;-0.240;2023-04-25T14:08:04;11.10;99.90
22838;DHT22;11585;51.450;-0.240;2023-04-25T14:10:33;11.10;99.90
22838;DHT22;11585;51.450;-0.240;2023-04-25T14:13:04;11.10;99.90
22838;DHT22;11585;51.450;-0.240;2023-04-25T14:15:31;11.10;99.90
22838;DHT22;11585;51.450;-0.240;2023-04-25T14:17:57;11.20;99.90
22838;DHT22;11585;51.450;-0.240;2023-04-25T14:20:23;11.10;99.90
22838;DHT22;11585;51.450;-0.240;2023-04-25T14:22:49;11.10;99.90
22838;DHT22;11585;51.450;-0.240;2023-04-25T14:25:15;11.10;99.90
22838;DHT22;11585;51.450;-0.240;2023-04-25T14:27:43;11.10;99.90
22838;DHT22;11585;51.450;-0.240;2023-04-25T14:30:12;10.90;99.90
22838;DHT22;11585;51.450;-0.240;2023-04-25T14:32:41;11.10;99.90
22838;DHT22;11585;51.450;-0.240;2023-04-25T14:35:07;11.10;99.90
22838;DHT22;11585;51.450;-0.240;2023-04-25T14:38:01;11.40;99.90
22838;DHT22;11585;51.450;-0.240;2023-04-25T14:40:26;11.10;99.90
22838;DHT22;11585;51.450;-0.240;2023-04-25T14:42:52;11.10;99.90
22838;DHT22;11585;51.450;-0.240;2023-04-25T14:45:18;11.10;99.90
22838;DHT22;11585;51.450;-0.240;2023-04-25T14:47:49;11.10;99.90
22838;DHT22;11585;51.450;-0.240;2023-04-25T14:50:15;11.10;99.90
22838;DHT22;11585;51.450;-0.240;2023-04-25T14:52:40;11.10;99.90
22838;DHT22;11585;51.450;-0.240;2023-04-25T14:55:06;11.10;99.90
22838;DHT22;11585;51.450;-0.240;2023-04-25T14:57:34;11.10;99.90
22838;DHT22;11585;51.450;-0.240;2023-04-25T15:00:00;11.10;99.90
22838;DHT22;11585;51.450;-0.240;2023-04-25T15:02:27;11.10;99.90
22838;DHT22;11585;51.450;-0.240;2023-04-25T15:04:53;11.10;99.90
22838;DHT22;11585;51.450;-0.240;2023-04-25T15:07:21;11.10;99.90
22838;DHT22;11585;51.450;-0.240;2023-04-25T15:09:47;11.10;99.90
22838;DHT22;11585;51.450;-0.240;2023-04-25T15:12:13;11.10;99.90
22838;DHT22;11585;51.450;-0.240;2023-04-25T15:14:48;11.10;99.90
22838;DHT22;11585;51.450;-0.240;2023-04-25T15:17:16;11.20;99.90
22838;DHT22;11585;51.450;-0.240;2023-04-25T15:19:43;11.20;99.90
22838;DHT22;11585;51.450;-0.240;2023-04-25T15:22:14;11.20;99.90
22838;DHT22;11585;51.450;-0.240;2023-04-25T15:24:47;11.20;99.90
22838;DHT22;11585;51.450;-0.240;2023-04-25T15:27:18;11.20;99.90
22838;DHT22;11585;51.450;-0.240;2023-04-25T15:30:07;11.20;99.90
22838;DHT22;11585;51.450;-0.240;2023-04-25T15:32:49;11.60;99.90
22838;DHT22;11585;51.450;-0.240;2023-04-25T15:35:50;11.30;99.90
22838;DHT22;11585;51.450;-0.240;2023-04-25T15:38:25;11.30;99.90
22838;DHT22;11585;51.450;-0.240;2023-04-25T15:40:58;11.30;99.90
22838;DHT22;11585;51.450;-0.240;2023-04-25T15:43:29;11.30;99.90
22838;DHT22;11585;51.450;-0.240;2023-04-25T15:46:04;11.30;99.90
22838;DHT22;11585;51.450;-0.240;2023-04-25T15:48:53;11.30;99.90
22838;DHT22;11585;51.450;-0.240;2023-04-25T15:51:32;11.30;99.90
22838;DHT22;11585;51.450;-0.240;2023-04-25T15:54:14;11.30;99.90
22838;DHT22;11585;51.450;-0.240;2023-04-25T15:56:46;11.40;99.90
22838;DHT22;11585;51.450;-0.240;2023-04-25T15:59:28;11.40;99.90
22838;DHT22;11585;51.450;-0.240;2023-04-25T16:01:57;11.30;99.90
22838;DHT22;11585;51.450;-0.240;2023-04-25T16:04:32;11.30;99.90
22838;DHT22;11585;51.450;-0.240;2023-04-25T16:07:06;11.40;99.90
22838;DHT22;11585;51.450;-0.240;2023-04-25T16:09:46;11.40;99.90
22838;DHT22;11585;51.450;-0.240;2023-04-25T16:12:20;11.40;99.90
22838;DHT22;11585;51.450;-0.240;2023-04-25T16:14:57;11.40;99.90
22838;DHT22;11585;51.450;-0.240;2023-04-25T16:17:57;11.50;99.90
22838;DHT22;11585;51.450;-0.240;2023-04-25T16:20:52;11.50;99.90
22838;DHT22;11585;51.450;-0.240;2023-04-25T16:23:24;11.50;99.90
22838;DHT22;11585;51.450;-0.240;2023-04-25T16:26:08;11.50;99.90
22838;DHT22;11585;51.450;-0.240;2023-04-25T16:28:35;11.50;99.90
22838;DHT22;11585;51.450;-0.240;2023-04-25T16:31:04;11.50;99.90
22838;DHT22;11585;51.450;-0.240;2023-04-25T16:33:54;11.50;99.90
22838;DHT22;11585;51.450;-0.240;2023-04-25T16:36:32;11.50;99.90
22838;DHT22;11585;51.450;-0.240;2023-04-25T16:39:35;11.50;99.90
22838;DHT22;11585;51.450;-0.240;2023-04-25T16:43:05;11.50;99.90
22838;DHT22;11585;51.450;-0.240;2023-04-25T16:49:27;11.50;99.90
22838;DHT22;11585;51.450;-0.240;2023-04-25T16:51:53;11.50;99.90
22838;DHT22;11585;51.450;-0.240;2023-04-25T16:54:31;11.50;99.90
22838;DHT22;11585;51.450;-0.240;2023-04-25T16:57:31;11.50;99.90
22838;DHT22;11585;51.450;-0.240;2023-04-25T17:00:40;11.50;99.90
22838;DHT22;11585;51.450;-0.240;2023-04-25T17:06:09;11.40;99.90
22838;DHT22;11585;51.450;-0.240;2023-04-25T17:08:36;11.40;99.90
22838;DHT22;11585;51.450;-0.240;2023-04-25T17:11:02;11.40;99.90
22838;DHT22;11585;51.450;-0.240;2023-04-25T17:13:33;11.30;99.90
22838;DHT22;11585;51.450;-0.240;2023-04-25T17:16:08;11.40;99.90
22838;DHT22;11585;51.450;-0.240;2023-04-25T17:18:43;11.40;99.90
22838;DHT22;11585;51.450;-0.240;2023-04-25T17:21:09;11.30;99.90
22838;DHT22;11585;51.450;-0.240;2023-04-25T17:27:07;11.40;99.90
22838;DHT22;11585;51.450;-0.240;2023-04-25T17:29:33;11.40;99.90
22838;DHT22;11585;51.450;-0.240;2023-04-25T17:31:59;11.40;99.90
22838;DHT22;11585;51.450;-0.240;2023-04-25T17:34:25;11.40;99.90
22838;DHT22;11585;51.450;-0.240;2023-04-25T17:37:04;11.30;99.90
22838;DHT22;11585;51.450;-0.240;2023-04-25T17:40:02;11.30;99.90
22838;DHT22;11585;51.450;-0.240;2023-04-25T17:42:34;11.30;99.90
22838;DHT22;11585;51.450;-0.240;2023-04-25T17:45:08;11.50;99.90
22838;DHT22;11585;51.450;-0.240;2023-04-25T17:47:35;11.30;99.90
22838;DHT22;11585;51.450;-0.240;2023-04-25T17:50:01;11.30;99.90
22838;DHT22;11585;51.450;-0.240;2023-04-25T17:52:26;11.30;99.90
22838;DHT22;11585;51.450;-0.240;2023-04-25T17:54:55;11.30;99.90
22838;DHT22;11585;51.450;-0.240;2023-04-25T17:57:22;11.30;99.90
22838;DHT22;11585;51.450;-0.240;2023-04-25T17:59:49;11.30;99.90
22838;DHT22;11585;51.450;-0.240;2023-04-25T18:02:15;11.30;99.90
22838;DHT22;11585;51.450;-0.240;2023-04-25T18:04:41;11.30;99.90
22838;DHT22;11585;51.450;-0.240;2023-04-25T18:07:07;11.20;99.90
22838;DHT22;11585;51.450;-0.240;2023-04-25T18:09:52;11.20;99.90
22838;DHT22;11585;51.450;-0.240;2023-04-25T18:12:18;11.30;99.90
22838;DHT22;11585;51.450;-0.240;2023-04-25T18:14:46;11.20;99.90
22838;DHT22;11585;51.450;-0.240;2023-04-25T18:17:12;11.20;99.90
22838;DHT22;11585;51.450;-0.240;2023-04-25T18:19:39;11.20;99.90
22838;DHT22;11585;51.450;-0.240;2023-04-25T18:22:04;11.20;99.90
22838;DHT22;11585;51.450;-0.240;2023-04-25T18:24:30;11.20;99.90
22838;DHT22;11585;51.450;-0.240;2023-04-25T18:26:56;11.20;99.90
22838;DHT22;11585;51.450;-0.240;2023-04-25T18:32:49;11.20;99.90
22838;DHT22;11585;51.450;-0.240;2023-04-25T18:35:15;11.20;99.90
22838;DHT22;11585;51.450;-0.240;2023-04-25T18:37:40;11.10;99.90
22838;DHT22;11585;51.450;-0.240;2023-04-25T18:40:06;11.20;99.90
22838;DHT22;11585;51.450;-0.240;2023-04-25T18:42:34;11.10;99.90
22838;DHT22;11585;51.450;-0.240;2023-04-25T18:45:02;11.10;99.90
22838;DHT22;11585;51.450;-0.240;2023-04-25T18:47:47;11.10;99.90
22838;DHT22;11585;51.450;-0.240;2023-04-25T18:50:12;11.10;99.90
22838;DHT22;11585;51.450;-0.240;2023-04-25T18:52:39;11.10;99.90
22838;DHT22;11585;51.450;-0.240;2023-04-25T18:55:06;11.10;99.90
22838;DHT22;11585;51.450;-0.240;2023-04-25T18:57:36;11.10;99.90
22838;DHT22;11585;51.450;-0.240;2023-04-25T19:00:02;11.10;99.90
22838;DHT22;11585;51.450;-0.240;2023-04-25T19:02:33;11.10;99.90
22838;DHT22;11585;51.450;-0.240;2023-04-25T19:05:01;11.10;99.90